Share

Cruz Bay, VI

6:29 AM AST on April 24, 2014 (GMT -0400)
ISTJOHNC2 Elev 443 ft | 18.33 °N, 64.78 °W | Change Station

Current weather conditions updated 8 minutes ago

Clear
Clear
75.3 °F
Feels Like 74 °F
N
3.0
Wind Variable Wind from SE
Gusts 7.0 mph
Sunrise 5:56 AM
Sunset 6:38 PM
Moon Waning Crescent

Today is forecast to be nearly the same temperature as yesterday.

Pressure 29.99 in
Visibility 10.0 miles
Clouds Clear
Heat Index 74 °F
Dew Point 73 °F
Humidity 91%
Rainfall 0.00 in
Snow Depth Not available.
UV 0 out of 16
Pollen Not available.
Air Quality Not available.
Flu Activity No Activity
METAR TIST 240953Z AUTO 11003KT 10SM CLR 25/23 A2998 RMK AO2 SLP154 T02500233 TSNO

More Conditions Fewer Conditions

Pressure 29.99 in
Visibility 10.0 miles
Clouds Clear
Heat Index 74 °F
Dew Point 73 °F
Humidity 91%
Rainfall 0.00 in
Snow Depth Not available.
UV 0 out of 16
Pollen Not available.
Air Quality Not available.
Flu Activity No Activity
METAR TIST 240953Z AUTO 11003KT 10SM CLR 25/23 A2998 RMK AO2 SLP154 T02500233 TSNO

More Conditions Fewer Conditions

10-Day Weather Forecast

Almanac

Astronomy

Apr. 24, 2014 Rise Set
Actual Time 5:56 AM AST 6:38 PM AST
Civil Twilight 5:33 AM AST 7:01 PM AST
Nautical Twilight 5:07 AM AST 7:27 PM AST
Astronomical Twilight 4:40 AM AST 7:54 PM AST
Moon 2:21 AM AST 2:28 PM AST
Length of Visible Light 13h 27m
Length of Day
12h 42m
Tomorrow will be 0m 57s longer.
Waning Crescent, 27% of the Moon is Illuminated
Today
Waning Crescent
Apr 29
New
May 6
First Quarter
May 14
Full
May 21
Last Quarter

Community

  • Stacked
    Stacked
  • clouds approaching Red Sox Nation
    clouds approaching Red Sox Nation
  • Balance
    Balance
  • Nestled In
    Nestled In
  • Stunning Sunrise
    Stunning Sunrise

WunderPhotos

Upload Photos

1,704,578 photos uploaded!

WunderBlogs® & News

Nearby

Snow Depth

Station Depth Elevation
No new snow has been reported.

Coastal Water Temperatures

Place Temperature
Yabucoa Harbor, PR 80.1 °F
Esperanza, PR 81.0 °F
Charlotte Amalie, VI 82.0 °F

Earthquake Activity

City Distance Mag. Time & Date
No recent earthquake activity has been reported nearby.
Minimum magnitude displayed is 2.5.

Nearby Weather Stations

Station Location Temp. Heat Index Dew Point Humidity Wind Precip. Elev Updated Type
Great Cruz Bay, St John, St John 75.9 °F 76 °F 73 °F 90% ESE  at  1.0 mph 0.00 in / hr 59 ft 2:59 AM AST Normal
Estate Bethany 75.3 °F 74 °F 73 °F 91% SE  at  3.0 mph 0.00 in / hr 443 ft 6:21 AM AST Normal
Bovoni, St Thomas 76.1 °F 76 °F 73 °F 89% NE  at  2.0 mph 0.00 in / hr 217 ft 6:29 AM AST Rapid Fire
NorthSide, St Thomas 74.1 °F 72 °F 72 °F 93% SSE  at  1.0 mph 0.00 in / hr 728 ft 6:29 AM AST Rapid Fire

Show More Stations Show Fewer Stations

What do you think?

We're not finished. Please let us know what you like, what you don't like, and what you are still missing.